SCSR weather

Segundo Corral Alto Airport
Segundo Corral, Los Lagos Region, Chile

Public forecast

Using degrees Celsius for public forecast. Weather courtesy of forecast.io.

Closest aviation weather report (METAR) to Segundo Corral Alto Airport

Report is more than 6 hours old.

Closest report is Brigadier Antonio Parodi Airport, 59.0 nm (109.3 km) SSE. Retrieved 2019/10/11 12:12 UTC (10 days ago):

SAVE 111212Z 07002KT 3000 FG SCT020 05/05 Q1008

Closest aviation forecast (TAF) to Segundo Corral Alto Airport

Forecast is more than 12 hours old.

Closest forecast is Brigadier Antonio Parodi Airport, 59.0 nm (109.3 km) SSE. Retrieved 2019/04/29 06:00 UTC (6 months ago):

TAF SAVE 290500Z 2906/3006 27015KT 9999 SCT030 SCT080 TX10/2919Z TN01/2910Z BECMG 2911/2913 25020G40KT BKN023 BECMG 2919/2921 29020KT